Time;durP1;ratioP1;P1;durP2;ratioP2;P2;SDS_P1;SDS_P2;PMS_P1;PMS_P2;Temp;Humidity;BMP_temperature;BMP_pressure;BME280_temperature;BME280_humidity;BME280_pressure;Samples;Min_cycle;Max_cycle;Signal;HPM_P1;HPM_P2
2023/06/30 00:01:28;;;;;;;;;;;;;;;21.15;38.02;100168.53;4968131;28;98047;-67
2023/06/30 00:03:55;;;;;;;;;;;;;;;21.15;37.95;100171.28;4948476;27;98350;-74
2023/06/30 00:06:22;;;;;;;;;;;;;;;21.15;38.05;100168.53;4947801;28;98180;-68
2023/06/30 00:08:48;;;;;;;;;;;;;;;21.13;38.15;100162.59;4929352;28;100275;-67
2023/06/30 00:11:16;;;;;;;;;;;;;;;21.14;38.05;100158.69;4945124;28;98290;-67
2023/06/30 00:13:43;;;;;;;;;;;;;;;21.14;38.01;100158.69;4963795;27;98031;-67
2023/06/30 00:16:10;;;;;;;;;;;;;;;21.12;38.03;100159.06;4949357;28;98212;-75
2023/06/30 00:18:36;;;;;;;;;;;;;;;21.12;38.07;100156.31;4947982;27;98630;-74
2023/06/30 00:21:03;;;;;;;;;;;;;;;21.11;38.06;100159.41;4926452;28;97928;-67
2023/06/30 00:23:29;;;;;;;;;;;;;;;21.09;38.10;100160.53;4958646;28;98436;-74
2023/06/30 00:25:56;;;;;;;;;;;;;;;21.07;38.15;100162.81;4931141;27;97990;-75
2023/06/30 00:28:24;;;;;;;;;;;;;;;21.07;38.15;100156.56;4929071;28;98545;-74
2023/06/30 00:30:50;;;;;;;;;;;;;;;21.05;38.24;100156.88;4942094;27;99118;-75
2023/06/30 00:33:17;;;;;;;;;;;;;;;21.04;38.16;100162.72;4922220;28;98195;-67
2023/06/30 00:35:44;;;;;;;;;;;;;;;21.02;38.17;100162.25;4930448;28;98099;-74
2023/06/30 00:38:10;;;;;;;;;;;;;;;21.00;38.17;100157.13;4929025;27;98100;-67
2023/06/30 00:40:38;;;;;;;;;;;;;;;20.98;38.19;100151.19;4922503;28;98016;-74
2023/06/30 00:43:05;;;;;;;;;;;;;;;20.98;38.21;100144.91;4929084;28;101643;-67
2023/06/30 00:45:31;;;;;;;;;;;;;;;20.98;38.36;100142.16;4931006;27;100092;-67
2023/06/30 00:47:58;;;;;;;;;;;;;;;20.96;38.24;100150.75;4930212;27;99703;-67
2023/06/30 00:50:24;;;;;;;;;;;;;;;20.94;38.30;100146.75;4940503;28;99480;-74
2023/06/30 00:52:51;;;;;;;;;;;;;;;20.90;38.34;100143.88;4926535;27;98277;-67
2023/06/30 00:55:18;;;;;;;;;;;;;;;20.88;38.42;100142.66;4922384;27;98514;-74
2023/06/30 00:57:45;;;;;;;;;;;;;;;20.85;38.38;100146.88;4930283;27;97883;-67
2023/06/30 01:00:12;;;;;;;;;;;;;;;20.80;38.54;100139.69;4930030;27;98320;-67
2023/06/30 01:03:01;;;;;;;;;;;;;;;20.77;38.33;100134.09;4929208;28;97962;-67
2023/06/30 01:05:46;;;;;;;;;;;;;;;20.74;38.45;100134.78;4927033;28;98265;-67
2023/06/30 01:08:16;;;;;;;;;;;;;;;20.74;38.45;100126.56;4919475;28;99471;-67
2023/06/30 01:10:43;;;;;;;;;;;;;;;20.72;38.41;100123.38;4948436;27;98091;-67
2023/06/30 01:13:10;;;;;;;;;;;;;;;20.72;38.54;100121.44;4927800;28;98878;-67
2023/06/30 01:15:36;;;;;;;;;;;;;;;20.73;38.37;100123.03;4940537;27;98188;-67
2023/06/30 01:18:02;;;;;;;;;;;;;;;20.73;38.35;100123.03;4928308;28;97795;-67
2023/06/30 01:20:30;;;;;;;;;;;;;;;20.74;38.49;100121.09;4943738;28;98002;-74
2023/06/30 01:23:05;;;;;;;;;;;;;;;20.74;38.41;100115.63;4932149;27;98182;-75
2023/06/30 01:25:32;;;;;;;;;;;;;;;20.71;38.51;100119.84;4966959;27;98393;-74
2023/06/30 01:27:58;;;;;;;;;;;;;;;20.71;38.45;100119.03;4951454;28;98461;-74
2023/06/30 01:30:29;;;;;;;;;;;;;;;20.70;38.39;100117.44;4928700;28;97961;-67
2023/06/30 01:32:56;;;;;;;;;;;;;;;20.70;38.44;100120.19;4947304;28;98143;-74
2023/06/30 01:35:24;;;;;;;;;;;;;;;20.70;38.47;100109.22;4931584;28;98604;-74
2023/06/30 01:37:51;;;;;;;;;;;;;;;20.69;38.45;100115.84;4928616;27;98954;-68
2023/06/30 01:40:17;;;;;;;;;;;;;;;20.70;38.49;100109.22;4937676;28;97965;-67
2023/06/30 01:42:44;;;;;;;;;;;;;;;20.71;38.49;100103.44;4932385;27;98127;-67
2023/06/30 01:45:11;;;;;;;;;;;;;;;20.76;38.61;100105.91;4930240;28;100126;-75
2023/06/30 01:47:37;;;;;;;;;;;;;;;20.83;38.56;100097.13;4930449;28;98289;-67
2023/06/30 01:50:03;;;;;;;;;;;;;;;20.92;38.53;100095.06;4940215;27;99399;-74
2023/06/30 01:52:29;;;;;;;;;;;;;;;20.97;38.51;100097.53;4929303;28;97859;-74
2023/06/30 01:54:56;;;;;;;;;;;;;;;21.02;38.56;100096.50;4931977;28;100532;-67
2023/06/30 01:57:21;;;;;;;;;;;;;;;21.05;38.47;100104.81;4928411;28;99243;-68
2023/06/30 01:59:48;;;;;;;;;;;;;;;21.08;38.52;100104.13;4928575;28;122775;-74
2023/06/30 02:02:14;;;;;;;;;;;;;;;21.11;38.52;100101.88;4964738;28;98043;-67
2023/06/30 02:04:40;;;;;;;;;;;;;;;21.13;38.57;100102.31;4927421;27;115246;-74
2023/06/30 02:07:06;;;;;;;;;;;;;;;21.15;38.51;100098.09;4925504;28;98174;-74
2023/06/30 02:09:32;;;;;;;;;;;;;;;21.17;38.43;100100.47;4939235;28;98364;-67
2023/06/30 02:11:58;;;;;;;;;;;;;;;21.19;38.54;100098.97;4924712;28;98184;-67
2023/06/30 02:14:24;;;;;;;;;;;;;;;21.21;38.62;100098.63;4920670;28;99560;-67
2023/06/30 02:16:50;;;;;;;;;;;;;;;21.22;38.67;100092.00;4937510;28;98029;-67
2023/06/30 02:19:16;;;;;;;;;;;;;;;21.22;38.67;100097.47;4926408;28;98740;-74
2023/06/30 02:21:43;;;;;;;;;;;;;;;21.23;38.64;100099.09;4928736;28;99603;-74
2023/06/30 02:24:10;;;;;;;;;;;;;;;21.22;38.67;100101.03;4926947;28;98059;-67
2023/06/30 02:26:36;;;;;;;;;;;;;;;21.21;38.51;100090.41;4946647;28;97903;-68
2023/06/30 02:29:03;;;;;;;;;;;;;;;21.21;38.72;100091.19;4928734;28;97969;-74
2023/06/30 02:31:29;;;;;;;;;;;;;;;21.21;38.71;100090.41;4957098;28;97979;-74
2023/06/30 02:33:55;;;;;;;;;;;;;;;21.18;38.77;100083.69;4927557;28;97929;-74
2023/06/30 02:36:21;;;;;;;;;;;;;;;21.15;38.76;100083.59;4938953;28;98008;-74
2023/06/30 02:38:47;;;;;;;;;;;;;;;21.12;38.72;100079.59;4928882;28;98978;-67
2023/06/30 02:41:14;;;;;;;;;;;;;;;21.10;38.77;100081.88;4899060;28;98430;-68
2023/06/30 02:43:42;;;;;;;;;;;;;;;21.08;38.77;100086.91;4925314;28;98055;-68
2023/06/30 02:46:09;;;;;;;;;;;;;;;21.03;38.76;100089.91;4945329;28;98026;-68
2023/06/30 02:48:35;;;;;;;;;;;;;;;20.98;38.86;100084.63;4928113;28;99478;-68
2023/06/30 02:51:02;;;;;;;;;;;;;;;20.96;38.93;100089.69;4929558;28;98138;-74
2023/06/30 02:53:28;;;;;;;;;;;;;;;20.94;38.92;100083.75;4926115;28;97992;-75
2023/06/30 02:55:54;;;;;;;;;;;;;;;20.93;38.88;100090.38;4938330;28;98229;-68
2023/06/30 02:58:22;;;;;;;;;;;;;;;20.91;38.82;100089.94;4926594;28;99232;-74
2023/06/30 03:00:49;;;;;;;;;;;;;;;20.89;38.90;100086.72;4927036;28;98308;-67
2023/06/30 03:03:15;;;;;;;;;;;;;;;20.89;38.83;100084.78;4943464;28;99191;-74
2023/06/30 03:05:42;;;;;;;;;;;;;;;20.87;38.91;100081.59;4928207;28;102595;-74
2023/06/30 03:08:09;;;;;;;;;;;;;;;20.86;38.89;100082.72;4935083;27;98042;-74
2023/06/30 03:10:36;;;;;;;;;;;;;;;20.84;38.96;100087.75;4935601;27;99207;-74
2023/06/30 03:13:03;;;;;;;;;;;;;;;20.81;39.01;100091.97;4930111;27;98465;-73
2023/06/30 03:15:29;;;;;;;;;;;;;;;20.80;38.88;100095.88;4944704;28;99613;-68
2023/06/30 03:17:56;;;;;;;;;;;;;;;20.79;38.88;100088.81;4929700;27;98643;-67
2023/06/30 03:20:22;;;;;;;;;;;;;;;20.80;38.93;100087.66;4931432;28;99987;-67
2023/06/30 03:22:49;;;;;;;;;;;;;;;20.81;38.87;100094.72;4926775;27;98039;-74
2023/06/30 03:25:15;;;;;;;;;;;;;;;20.81;38.83;100089.25;4930006;28;97950;-67
2023/06/30 03:27:42;;;;;;;;;;;;;;;20.81;38.97;100088.44;4932917;28;97980;-74
2023/06/30 03:30:08;;;;;;;;;;;;;;;20.80;38.98;100093.13;4935347;28;98175;-67
2023/06/30 03:32:36;;;;;;;;;;;;;;;20.81;38.88;100093.94;4930731;28;98002;-74
2023/06/30 03:35:03;;;;;;;;;;;;;;;20.80;38.92;100093.13;4941149;28;100962;-74
2023/06/30 03:37:30;;;;;;;;;;;;;;;20.80;38.87;100084.13;4932270;28;98593;-75
2023/06/30 03:39:57;;;;;;;;;;;;;;;20.81;38.99;100091.19;4933650;27;98204;-75
2023/06/30 03:42:23;;;;;;;;;;;;;;;20.81;38.94;100088.44;4941595;28;98056;-68
2023/06/30 03:44:50;;;;;;;;;;;;;;;20.80;39.07;100090.41;4929230;28;98150;-74
2023/06/30 03:47:16;;;;;;;;;;;;;;;20.80;39.00;100092.34;4947721;28;98402;-67
2023/06/30 03:49:43;;;;;;;;;;;;;;;20.81;38.95;100091.19;4929737;27;97967;-68
2023/06/30 03:52:09;;;;;;;;;;;;;;;20.81;38.99;100094.72;4923870;28;98600;-68
2023/06/30 03:54:35;;;;;;;;;;;;;;;20.82;38.94;100101.78;4931212;28;98036;-74
2023/06/30 03:57:02;;;;;;;;;;;;;;;20.86;38.91;100098.38;4939952;28;98216;-67
2023/06/30 03:59:28;;;;;;;;;;;;;;;20.86;38.92;100095.63;4933017;28;98141;-67
2023/06/30 04:01:54;;;;;;;;;;;;;;;20.86;38.88;100096.41;4924886;27;98817;-67
2023/06/30 04:04:21;;;;;;;;;;;;;;;20.87;38.86;100094.47;4961998;28;98288;-69
2023/06/30 04:06:47;;;;;;;;;;;;;;;20.86;38.95;100101.09;4930965;27;98867;-73
2023/06/30 04:09:13;;;;;;;;;;;;;;;20.86;38.97;100098.38;4947771;28;98124;-66
2023/06/30 04:11:40;;;;;;;;;;;;;;;20.84;38.93;100099.50;4922337;28;98478;-66
2023/06/30 04:14:07;;;;;;;;;;;;;;;20.85;38.96;100105.78;4929250;28;99372;-66
2023/06/30 04:16:33;;;;;;;;;;;;;;;20.83;38.96;100108.88;4930960;27;99620;-66
2023/06/30 04:18:59;;;;;;;;;;;;;;;20.84;39.04;100106.94;4940770;27;98546;-66
2023/06/30 04:21:26;;;;;;;;;;;;;;;20.83;38.99;100108.88;4929628;28;98082;-75
2023/06/30 04:23:53;;;;;;;;;;;;;;;20.83;38.93;100114.34;4947160;28;99260;-69
2023/06/30 04:26:19;;;;;;;;;;;;;;;20.86;38.97;100112.06;4925677;28;98288;-68
2023/06/30 04:28:48;;;;;;;;;;;;;;;20.87;38.90;100110.91;4943884;27;98012;-68
2023/06/30 04:31:15;;;;;;;;;;;;;;;20.87;38.97;100110.91;4930276;28;97965;-69
2023/06/30 04:33:42;;;;;;;;;;;;;;;20.89;39.05;100108.63;4924413;27;97996;-69
2023/06/30 04:36:08;;;;;;;;;;;;;;;20.91;39.01;100107.16;4930857;28;98059;-66
2023/06/30 04:38:35;;;;;;;;;;;;;;;20.94;38.98;100106.44;4924663;27;98693;-75
2023/06/30 04:41:02;;;;;;;;;;;;;;;20.97;38.99;100113.19;4923011;27;98218;-75
2023/06/30 04:43:28;;;;;;;;;;;;;;;21.00;38.95;100112.50;4925396;27;98005;-75
2023/06/30 04:45:55;;;;;;;;;;;;;;;21.06;38.96;100113.84;4937045;27;98175;-68
2023/06/30 04:48:21;;;;;;;;;;;;;;;21.12;38.91;100114.41;4926288;28;98153;-75
2023/06/30 04:50:47;;;;;;;;;;;;;;;21.19;38.85;100109.94;4942407;27;98257;-68
2023/06/30 04:53:14;;;;;;;;;;;;;;;21.26;38.88;100107.41;4922752;28;98098;-68
2023/06/30 04:55:40;;;;;;;;;;;;;;;21.32;38.83;100097.00;4923893;27;98173;-68
2023/06/30 04:58:06;;;;;;;;;;;;;;;21.33;38.79;100079.41;4924158;27;98208;-68
2023/06/30 05:00:32;;;;;;;;;;;;;;;21.35;38.87;100085.38;4927704;28;98202;-75
2023/06/30 05:03:02;;;;;;;;;;;;;;;21.36;38.93;100091.66;4927709;28;98477;-75
2023/06/30 05:05:30;;;;;;;;;;;;;;;21.36;38.94;100102.59;4924943;27;98515;-75
2023/06/30 05:07:56;;;;;;;;;;;;;;;21.34;38.85;100089.25;4937147;28;98413;-68
2023/06/30 05:10:23;;;;;;;;;;;;;;;21.29;38.97;100087.50;4936759;28;99663;-75
2023/06/30 05:12:51;;;;;;;;;;;;;;;21.23;39.06;100088.13;4922685;28;98083;-75
2023/06/30 05:15:18;;;;;;;;;;;;;;;21.20;39.11;100078.66;4937952;28;98280;-68
2023/06/30 05:17:45;;;;;;;;;;;;;;;21.20;39.13;100061.41;4919798;28;98043;-75
2023/06/30 05:20:11;;;;;;;;;;;;;;;21.21;39.06;100065.75;4922820;28;98530;-74
2023/06/30 05:22:40;;;;;;;;;;;;;;;21.23;39.04;100064.25;4925450;28;98059;-68
2023/06/30 05:25:07;;;;;;;;;;;;;;;21.27;39.01;100059.66;4924206;28;98286;-67
2023/06/30 05:27:34;;;;;;;;;;;;;;;21.33;39.00;100069.25;4926207;28;98098;-68
2023/06/30 05:30:00;;;;;;;;;;;;;;;21.39;38.92;100069.03;4927834;28;98385;-68
2023/06/30 05:32:26;;;;;;;;;;;;;;;21.44;38.96;100066.81;4942127;28;97764;-68
2023/06/30 05:34:56;;;;;;;;;;;;;;;21.51;38.78;100067.00;4925063;28;98382;-68
2023/06/30 05:37:22;;;;;;;;;;;;;;;21.58;38.81;100062.88;4937136;28;98179;-68
2023/06/30 05:39:48;;;;;;;;;;;;;;;21.67;38.76;100072.53;4927865;28;98748;-75
2023/06/30 05:42:15;;;;;;;;;;;;;;;21.76;38.78;100064.13;4923135;28;97873;-67
2023/06/30 05:44:44;;;;;;;;;;;;;;;21.82;38.65;100062.75;4942379;28;99373;-74
2023/06/30 05:47:11;;;;;;;;;;;;;;;21.85;38.69;100061.22;4929934;28;97933;-67
2023/06/30 05:49:38;;;;;;;;;;;;;;;21.86;38.83;100058.13;4927225;28;98234;-67
2023/06/30 05:52:07;;;;;;;;;;;;;;;21.89;38.73;100053.88;4945454;28;98150;-68
2023/06/30 05:54:33;;;;;;;;;;;;;;;21.94;38.68;100048.94;4929437;28;100005;-68
2023/06/30 05:57:01;;;;;;;;;;;;;;;22.00;38.74;100050.25;4933411;28;98192;-74
2023/06/30 05:59:28;;;;;;;;;;;;;;;22.06;38.67;100054.34;4930235;28;98378;-74
2023/06/30 06:01:55;;;;;;;;;;;;;;;22.09;38.75;100052.84;4941949;28;100340;-68
2023/06/30 06:04:22;;;;;;;;;;;;;;;22.15;38.64;100051.44;4929505;28;98335;-75
2023/06/30 06:06:48;;;;;;;;;;;;;;;22.19;38.73;100051.53;4929200;28;98017;-74
2023/06/30 06:09:15;;;;;;;;;;;;;;;22.22;38.64;100053.56;4929866;28;97967;-75
2023/06/30 06:11:44;;;;;;;;;;;;;;;22.22;38.75;100056.31;4946593;28;98497;-68
2023/06/30 06:14:10;;;;;;;;;;;;;;;22.20;38.72;100047.63;4951320;28;98500;-68
2023/06/30 06:16:38;;;;;;;;;;;;;;;22.19;38.95;100057.81;4928852;28;98093;-74
2023/06/30 06:19:06;;;;;;;;;;;;;;;22.19;38.84;100054.28;4920375;28;98629;-74
2023/06/30 06:21:35;;;;;;;;;;;;;;;22.17;39.01;100062.06;4933084;28;98519;-74
2023/06/30 06:24:01;;;;;;;;;;;;;;;22.13;38.96;100064.72;4944900;28;98246;-74
2023/06/30 06:26:28;;;;;;;;;;;;;;;22.11;38.87;100068.94;4926977;28;98256;-68
2023/06/30 06:28:55;;;;;;;;;;;;;;;22.09;39.07;100074.00;4922175;28;98041;-68
2023/06/30 06:31:24;;;;;;;;;;;;;;;22.04;39.10;100075.81;4943074;28;98071;-74
2023/06/30 06:33:51;;;;;;;;;;;;;;;22.00;39.20;100085.91;4923244;28;98117;-68
2023/06/30 06:36:18;;;;;;;;;;;;;;;21.98;39.20;100081.94;4930726;28;97911;-74
2023/06/30 06:38:44;;;;;;;;;;;;;;;21.92;39.04;100086.88;4920718;28;97930;-69
2023/06/30 06:41:10;;;;;;;;;;;;;;;21.89;39.19;100087.63;4941964;28;97925;-69
2023/06/30 06:43:37;;;;;;;;;;;;;;;21.87;39.32;100098.13;4931825;28;98187;-74
2023/06/30 06:46:03;;;;;;;;;;;;;;;21.85;39.23;100094.13;4941432;28;98599;-75
2023/06/30 06:48:30;;;;;;;;;;;;;;;21.85;39.33;100096.88;4944563;28;100117;-75
2023/06/30 06:51:00;;;;;;;;;;;;;;;21.84;39.28;100092.53;4926622;28;99664;-68
2023/06/30 06:53:33;;;;;;;;;;;;;;;21.85;39.22;100094.13;4926450;28;97937;-68
2023/06/30 06:55:59;;;;;;;;;;;;;;;21.85;39.30;100094.97;4947950;28;97960;-75
2023/06/30 06:58:29;;;;;;;;;;;;;;;21.87;39.40;100091.84;4927593;28;98176;-75
2023/06/30 07:00:55;;;;;;;;;;;;;;;21.90;39.24;100091.16;4942929;28;98165;-68
2023/06/30 07:03:24;;;;;;;;;;;;;;;21.93;39.13;100096.75;4927306;28;99178;-75
2023/06/30 07:05:55;;;;;;;;;;;;;;;21.97;39.16;100091.34;4944894;28;98109;-75
2023/06/30 07:08:21;;;;;;;;;;;;;;;22.06;39.21;100091.97;4924274;28;98172;-68
2023/06/30 07:10:50;;;;;;;;;;;;;;;22.17;39.01;100098.53;4928633;27;99744;-68
2023/06/30 07:13:18;;;;;;;;;;;;;;;22.28;38.99;100094.13;4929317;28;98501;-75
2023/06/30 07:15:50;;;;;;;;;;;;;;;22.39;38.86;100099.06;4924633;27;98370;-75
2023/06/30 07:18:18;;;;;;;;;;;;;;;22.47;38.86;100093.38;4931587;28;98065;-75
2023/06/30 07:20:48;;;;;;;;;;;;;;;22.50;39.02;100098.16;4929960;28;98122;-75
2023/06/30 07:23:14;;;;;;;;;;;;;;;22.47;39.03;100098.88;4924523;28;98160;-75
2023/06/30 07:25:42;;;;;;;;;;;;;;;22.50;38.96;100100.91;4932644;27;98075;-75
2023/06/30 07:28:09;;;;;;;;;;;;;;;22.53;39.01;100104.91;4931343;28;98173;-75
2023/06/30 07:30:36;;;;;;;;;;;;;;;22.55;38.96;100097.09;4928613;27;98471;-75
2023/06/30 07:33:02;;;;;;;;;;;;;;;22.60;38.84;100096.00;4931641;28;98549;-75
2023/06/30 07:35:29;;;;;;;;;;;;;;;22.63;38.92;100098.84;4921134;28;98203;-68
2023/06/30 07:37:55;;;;;;;;;;;;;;;22.68;38.85;100093.09;4931890;27;97923;-69
2023/06/30 07:40:22;;;;;;;;;;;;;;;22.76;38.84;100091.31;4927312;28;98129;-68
2023/06/30 07:42:48;;;;;;;;;;;;;;;22.79;38.96;100094.13;4934640;27;98120;-75
2023/06/30 07:45:15;;;;;;;;;;;;;;;22.84;38.64;100082.06;4932652;28;98167;-69
2023/06/30 07:47:43;;;;;;;;;;;;;;;22.94;38.66;100089.75;4924518;27;98578;-68
2023/06/30 07:50:12;;;;;;;;;;;;;;;23.00;38.77;100088.34;4933435;27;98155;-68
2023/06/30 07:52:40;;;;;;;;;;;;;;;23.07;38.73;100098.69;4934802;27;100546;-76
2023/06/30 07:55:06;;;;;;;;;;;;;;;23.11;38.80;100091.31;4948017;27;98238;-69
2023/06/30 07:57:36;;;;;;;;;;;;;;;23.14;38.82;100092.53;4927662;28;98541;-75
2023/06/30 08:00:03;;;;;;;;;;;;;;;23.09;38.81;100088.13;4934485;27;97797;-68
2023/06/30 08:02:30;;;;;;;;;;;;;;;23.08;39.00;100103.03;4943998;28;98090;-75
2023/06/30 08:04:56;;;;;;;;;;;;;;;23.12;38.91;100097.59;4930864;27;99086;-69
2023/06/30 08:07:23;;;;;;;;;;;;;;;23.17;38.74;100100.84;4947612;28;100051;-76
2023/06/30 08:09:49;;;;;;;;;;;;;;;23.24;38.65;100094.72;4929773;27;98049;-68
2023/06/30 08:12:16;;;;;;;;;;;;;;;23.31;38.87;100099.56;4931936;28;99535;-69
2023/06/30 08:14:49;;;;;;;;;;;;;;;23.37;38.56;100101.66;4931432;27;98113;-75
2023/06/30 08:17:16;;;;;;;;;;;;;;;23.41;38.63;100109.97;4925002;28;98087;-66
2023/06/30 08:19:43;;;;;;;;;;;;;;;23.45;38.54;100110.84;4930775;27;98224;-68
2023/06/30 08:22:16;;;;;;;;;;;;;;;23.42;38.65;100117.88;4949395;28;98185;-68
2023/06/30 08:24:46;;;;;;;;;;;;;;;23.36;38.94;100113.81;4931084;27;98374;-75
2023/06/30 08:27:13;;;;;;;;;;;;;;;23.30;39.10;100111.72;4944901;28;98170;-75
2023/06/30 08:29:40;;;;;;;;;;;;;;;23.28;39.02;100109.31;4932146;28;98501;-75
2023/06/30 08:32:06;;;;;;;;;;;;;;;23.31;38.79;100111.38;4949150;28;98278;-68
2023/06/30 08:34:33;;;;;;;;;;;;;;;23.26;38.92;100122.63;4949542;28;98137;-75
2023/06/30 08:37:00;;;;;;;;;;;;;;;23.24;38.89;100116.72;4929762;28;98072;-75
2023/06/30 08:39:31;;;;;;;;;;;;;;;23.23;38.93;100123.38;4928166;28;97983;-75
2023/06/30 08:41:59;;;;;;;;;;;;;;;23.25;39.13;100116.34;4922687;28;98246;-68
2023/06/30 08:44:25;;;;;;;;;;;;;;;23.27;39.04;100121.50;4929136;28;98139;-68
2023/06/30 08:46:53;;;;;;;;;;;;;;;23.27;38.79;100116.78;4930359;27;97989;-68
2023/06/30 08:49:23;;;;;;;;;;;;;;;23.33;39.10;100117.28;4929340;28;98133;-75
2023/06/30 08:51:59;;;;;;;;;;;;;;;23.38;38.71;100116.19;4947213;27;98254;-75
2023/06/30 08:54:28;;;;;;;;;;;;;;;23.42;39.00;100117.06;4941486;28;98368;-75
2023/06/30 08:56:55;;;;;;;;;;;;;;;23.53;38.90;100109.81;4918793;28;98220;-75
2023/06/30 08:59:21;;;;;;;;;;;;;;;23.70;38.58;100108.63;4929667;28;98240;-75
2023/06/30 09:01:48;;;;;;;;;;;;;;;23.90;38.31;100101.91;4924672;27;98309;-68
2023/06/30 09:04:14;;;;;;;;;;;;;;;24.13;38.31;100099.16;4931061;28;98222;-68
2023/06/30 09:06:48;;;;;;;;;;;;;;;24.28;38.37;100099.38;4930082;27;98123;-75
2023/06/30 09:09:27;;;;;;;;;;;;;;;24.33;38.48;100101.84;4942644;28;100157;-68
2023/06/30 09:11:55;;;;;;;;;;;;;;;24.36;38.39;100106.59;4941549;28;98620;-70
2023/06/30 09:14:24;;;;;;;;;;;;;;;24.34;38.54;100095.97;4932973;28;99624;-75
2023/06/30 09:16:51;;;;;;;;;;;;;;;24.40;38.31;100090.97;4930561;27;98136;-68
2023/06/30 09:19:26;;;;;;;;;;;;;;;24.45;38.56;100091.47;4933645;28;97961;-75
2023/06/30 09:21:53;;;;;;;;;;;;;;;24.47;38.54;100096.59;4924805;27;99607;-67
2023/06/30 09:24:20;;;;;;;;;;;;;;;24.41;38.78;100104.38;4934442;27;98417;-68
2023/06/30 09:26:46;;;;;;;;;;;;;;;24.35;38.75;100102.25;4924760;27;98210;-68
2023/06/30 09:29:14;;;;;;;;;;;;;;;24.28;38.89;100102.94;4932034;28;99280;-68
2023/06/30 09:31:42;;;;;;;;;;;;;;;24.23;38.74;100106.00;4929474;27;98175;-75
2023/06/30 09:34:09;;;;;;;;;;;;;;;24.20;38.71;100109.50;4933042;27;97978;-69
2023/06/30 09:36:41;;;;;;;;;;;;;;;24.28;38.56;100102.94;4941770;28;98084;-75
2023/06/30 09:39:08;;;;;;;;;;;;;;;24.34;38.58;100098.72;4931357;28;98172;-75
2023/06/30 09:41:35;;;;;;;;;;;;;;;24.39;38.44;100092.91;4930510;28;98077;-68
2023/06/30 09:44:03;;;;;;;;;;;;;;;24.62;38.23;100092.88;4927766;28;99251;-69
2023/06/30 09:46:31;;;;;;;;;;;;;;;25.06;37.88;100077.72;4946902;28;98185;-74
2023/06/30 09:49:01;;;;;;;;;;;;;;;25.24;38.05;100089.03;4928224;27;97904;-68
2023/06/30 09:51:30;;;;;;;;;;;;;;;25.27;37.74;100091.84;4945548;28;98509;-75
2023/06/30 09:53:56;;;;;;;;;;;;;;;25.39;38.00;100077.00;4943084;28;98382;-68
2023/06/30 09:56:26;;;;;;;;;;;;;;;25.46;37.76;100086.13;4927794;28;99733;-75
2023/06/30 09:58:57;;;;;;;;;;;;;;;25.45;38.00;100092.81;4944446;27;98405;-68
2023/06/30 10:01:23;;;;;;;;;;;;;;;25.47;38.21;100100.72;4945662;28;98195;-75
2023/06/30 10:03:52;;;;;;;;;;;;;;;25.64;38.07;100093.81;4928226;27;97913;-75
2023/06/30 10:06:22;;;;;;;;;;;;;;;25.96;37.63;100088.63;4945712;28;98383;-68
2023/06/30 10:08:50;;;;;;;;;;;;;;;26.25;37.41;100091.63;4930160;28;98306;-69
2023/06/30 10:11:16;;;;;;;;;;;;;;;26.62;37.23;100083.25;4939951;28;98893;-69
2023/06/30 10:13:43;;;;;;;;;;;;;;;27.43;36.51;100082.09;4929386;28;99326;-68
2023/06/30 10:16:09;;;;;;;;;;;;;;;27.90;36.29;100071.91;4928312;27;98088;-68
2023/06/30 10:18:38;;;;;;;;;;;;;;;27.89;36.44;100076.66;4943541;28;98327;-75
2023/06/30 10:21:05;;;;;;;;;;;;;;;27.93;36.59;100079.44;4931206;28;98428;-75
2023/06/30 10:23:31;;;;;;;;;;;;;;;28.01;36.64;100074.72;4929449;28;98362;-68
2023/06/30 10:25:57;;;;;;;;;;;;;;;28.07;36.63;100082.25;4944172;28;100742;-75
2023/06/30 10:28:23;;;;;;;;;;;;;;;28.16;36.95;100081.06;4927246;28;99800;-75
2023/06/30 10:30:50;;;;;;;;;;;;;;;28.61;36.47;100076.66;4944405;27;98789;-69
2023/06/30 10:33:17;;;;;;;;;;;;;;;28.93;36.50;100065.50;4920220;28;98056;-69
2023/06/30 10:35:44;;;;;;;;;;;;;;;29.27;35.79;100074.09;4926455;28;99997;-75
2023/06/30 10:38:13;;;;;;;;;;;;;;;29.58;35.98;100077.13;4926247;28;98203;-75
2023/06/30 10:40:39;;;;;;;;;;;;;;;29.63;35.81;100064.81;4930077;27;98048;-69
2023/06/30 10:43:07;;;;;;;;;;;;;;;29.73;36.26;100066.75;4926482;28;98218;-75
2023/06/30 10:45:56;;;;;;;;;;;;;;;29.76;36.33;100063.94;4928631;28;97972;-75
2023/06/30 10:48:22;;;;;;;;;;;;;;;29.53;36.64;100058.91;4949791;28;98494;-69
2023/06/30 10:50:49;;;;;;;;;;;;;;;29.64;36.76;100056.09;4928992;28;99566;-75
2023/06/30 10:53:18;;;;;;;;;;;;;;;30.22;35.85;100046.16;4931167;28;97892;-69
2023/06/30 10:55:45;;;;;;;;;;;;;;;30.52;35.76;100053.78;4947865;27;98140;-75
2023/06/30 10:58:13;;;;;;;;;;;;;;;30.78;35.56;100051.56;4937201;28;98221;-69
2023/06/30 11:00:39;;;;;;;;;;;;;;;30.91;35.67;100047.03;4934867;27;97992;-75
2023/06/30 11:03:06;;;;;;;;;;;;;;;30.85;35.81;100056.22;4923968;28;98824;-69
2023/06/30 11:05:33;;;;;;;;;;;;;;;30.69;36.18;100046.44;4932951;28;99926;-69
2023/06/30 11:08:06;;;;;;;;;;;;;;;30.39;36.53;100046.38;4939202;27;98940;-69
2023/06/30 11:10:43;;;;;;;;;;;;;;;30.21;36.56;100032.66;4963987;27;99285;-75
2023/06/30 11:13:09;;;;;;;;;;;;;;;30.55;36.30;100029.94;4954868;28;98183;-69
2023/06/30 11:15:37;;;;;;;;;;;;;;;30.80;36.15;100019.31;4948011;28;98530;-75
2023/06/30 11:18:05;;;;;;;;;;;;;;;30.72;36.13;100011.47;4948265;28;98252;-69
2023/06/30 11:20:32;;;;;;;;;;;;;;;30.73;36.26;100002.75;4946387;28;99176;-69
2023/06/30 11:23:05;;;;;;;;;;;;;;;30.93;35.97;100002.91;4929385;27;98095;-75
2023/06/30 11:25:35;;;;;;;;;;;;;;;31.86;35.36;99998.00;4949249;28;98230;-74
2023/06/30 11:28:04;;;;;;;;;;;;;;;32.26;34.73;99988.50;4933314;27;97834;-69
2023/06/30 11:30:38;;;;;;;;;;;;;;;32.34;35.15;99989.16;4930025;28;98537;-75
2023/06/30 11:33:05;;;;;;;;;;;;;;;32.76;34.68;99978.41;4931942;28;98061;-75
2023/06/30 11:35:36;;;;;;;;;;;;;;;32.93;34.69;99971.72;4940087;28;98893;-75
2023/06/30 11:38:02;;;;;;;;;;;;;;;32.69;35.21;99972.97;4924998;28;98241;-70
2023/06/30 11:40:29;;;;;;;;;;;;;;;32.56;35.53;99972.84;4932801;28;98427;-69
2023/06/30 11:42:55;;;;;;;;;;;;;;;32.71;35.57;99984.50;4927401;27;98037;-70
2023/06/30 11:45:27;;;;;;;;;;;;;;;33.05;34.92;99977.81;4929928;28;98403;-70
2023/06/30 11:47:54;;;;;;;;;;;;;;;33.34;34.82;99964.00;4932252;28;99577;-75
2023/06/30 11:50:20;;;;;;;;;;;;;;;33.11;35.52;99973.31;4927810;28;98375;-69
2023/06/30 11:52:51;;;;;;;;;;;;;;;32.85;35.43;99966.66;4922503;27;98216;-69
2023/06/30 11:55:18;;;;;;;;;;;;;;;32.64;35.68;99963.09;4944730;28;97983;-75
2023/06/30 11:57:49;;;;;;;;;;;;;;;32.83;35.58;99958.72;4930784;27;98049;-69
2023/06/30 12:00:19;;;;;;;;;;;;;;;32.94;35.16;99948.16;4932670;28;98212;-75
2023/06/30 12:02:46;;;;;;;;;;;;;;;32.80;35.81;99940.06;4946680;28;97949;-69
2023/06/30 12:05:17;;;;;;;;;;;;;;;32.80;35.50;99940.06;4943140;28;97884;-70
2023/06/30 12:07:45;;;;;;;;;;;;;;;32.54;36.00;99932.66;4923022;28;98707;-75
2023/06/30 12:10:12;;;;;;;;;;;;;;;32.43;35.98;99944.81;4941439;28;98086;-75
2023/06/30 12:12:39;;;;;;;;;;;;;;;32.33;36.19;99939.41;4929673;27;98024;-69
2023/06/30 12:15:10;;;;;;;;;;;;;;;32.13;36.39;99936.63;4925592;28;100332;-75
2023/06/30 12:17:42;;;;;;;;;;;;;;;31.83;36.56;99927.16;4932167;28;98493;-69
2023/06/30 12:20:09;;;;;;;;;;;;;;;31.48;36.95;99931.34;4933820;27;97940;-76
2023/06/30 12:22:44;;;;;;;;;;;;;;;31.08;36.88;99941.47;4930859;28;98311;-75
2023/06/30 12:25:11;;;;;;;;;;;;;;;30.68;37.44;99938.41;4931945;27;98562;-76
2023/06/30 12:27:42;;;;;;;;;;;;;;;30.35;37.77;99942.81;4931905;28;98051;-69
2023/06/30 12:30:17;;;;;;;;;;;;;;;30.00;37.72;99945.50;4922834;27;100353;-76
2023/06/30 12:32:44;;;;;;;;;;;;;;;29.59;37.81;99943.50;4932896;28;99113;-70
2023/06/30 12:35:11;;;;;;;;;;;;;;;29.31;37.94;99957.53;4930245;28;98150;-75
2023/06/30 12:37:38;;;;;;;;;;;;;;;29.08;38.23;99961.66;4931220;28;98582;-69
2023/06/30 12:40:08;;;;;;;;;;;;;;;28.87;38.09;99962.50;4936720;28;98439;-69